Time;durP1;ratioP1;P1;durP2;ratioP2;P2;SDS_P1;SDS_P2;PMS_P1;PMS_P2;Temp;Humidity;BMP_temperature;BMP_pressure;BME280_temperature;BME280_humidity;BME280_pressure;Samples;Min_cycle;Max_cycle;Signal;HPM_P1;HPM_P2
2022/08/02 00:01:38;;;;;;;7.78;3.03;;;15.20;94.90;;;;;;5062673;28;20045;-44
2022/08/02 00:04:05;;;;;;;6.00;3.20;;;15.10;95.00;;;;;;5044621;28;20066;-42
2022/08/02 00:06:32;;;;;;;7.22;2.97;;;15.20;95.40;;;;;;5047858;28;20130;-42
2022/08/02 00:08:58;;;;;;;10.32;3.15;;;15.10;95.20;;;;;;5046570;28;20061;-43
2022/08/02 00:11:25;;;;;;;10.00;3.63;;;15.10;95.30;;;;;;5046831;28;20091;-43
2022/08/02 00:13:52;;;;;;;7.93;3.05;;;15.10;95.30;;;;;;5071591;28;20075;-43
2022/08/02 00:16:20;;;;;;;5.60;2.58;;;15.10;95.40;;;;;;5069244;28;20556;-42
2022/08/02 00:18:47;;;;;;;7.95;2.70;;;15.00;95.10;;;;;;5064733;28;20451;-44
2022/08/02 00:21:14;;;;;;;6.97;2.92;;;15.00;95.00;;;;;;5063585;28;20072;-43
2022/08/02 00:23:41;;;;;;;7.97;2.83;;;15.00;95.00;;;;;;5061200;28;20057;-43
2022/08/02 00:26:08;;;;;;;9.98;3.53;;;15.00;95.10;;;;;;5058254;28;20059;-42
2022/08/02 00:28:34;;;;;;;7.53;2.97;;;15.00;95.30;;;;;;5033438;28;20041;-44
2022/08/02 00:31:04;;;;;;;8.23;3.10;;;15.00;95.20;;;;;;5033726;28;20041;-43
2022/08/02 00:33:32;;;;;;;8.40;3.42;;;15.00;95.20;;;;;;5056178;28;20126;-43
2022/08/02 00:35:59;;;;;;;9.40;3.15;;;14.90;95.50;;;;;;5066020;28;20050;-43
2022/08/02 00:38:25;;;;;;;9.18;2.78;;;14.90;95.50;;;;;;5062683;28;20495;-43
2022/08/02 00:40:53;;;;;;;8.60;3.33;;;14.90;95.40;;;;;;5044673;28;20140;-43
2022/08/02 00:43:19;;;;;;;10.75;3.22;;;14.80;95.40;;;;;;5057661;28;20396;-44
2022/08/02 00:45:46;;;;;;;7.38;2.88;;;14.80;95.50;;;;;;5050815;28;20096;-43
2022/08/02 00:48:13;;;;;;;10.32;3.70;;;14.80;95.60;;;;;;5051361;28;20084;-43
2022/08/02 00:50:41;;;;;;;8.55;2.55;;;14.80;95.70;;;;;;5058962;28;20083;-43
2022/08/02 00:53:08;;;;;;;9.73;3.22;;;14.70;95.60;;;;;;5070714;28;20143;-43
2022/08/02 00:55:35;;;;;;;7.43;2.80;;;14.70;95.60;;;;;;5067248;28;20067;-43
2022/08/02 00:58:02;;;;;;;6.15;2.92;;;14.70;95.60;;;;;;5057614;28;20127;-43
2022/08/02 01:00:28;;;;;;;9.18;2.75;;;14.70;95.60;;;;;;5043623;28;20153;-44
2022/08/02 01:02:55;;;;;;;8.48;3.08;;;14.60;95.60;;;;;;5051291;28;20076;-43
2022/08/02 01:05:22;;;;;;;6.45;2.60;;;14.60;95.70;;;;;;5052447;28;20133;-44
2022/08/02 01:07:50;;;;;;;10.00;2.70;;;14.60;95.60;;;;;;5066510;28;20101;-43
2022/08/02 01:10:17;;;;;;;6.97;2.78;;;14.60;95.60;;;;;;5065583;28;20075;-43
2022/08/02 01:12:46;;;;;;;10.20;2.80;;;14.60;95.60;;;;;;5052732;28;20566;-43
2022/08/02 01:15:13;;;;;;;9.80;2.80;;;14.50;95.70;;;;;;5050861;28;20057;-43
2022/08/02 01:17:44;;;;;;;8.57;3.28;;;14.50;95.60;;;;;;5066697;28;20076;-43
2022/08/02 01:20:14;;;;;;;11.07;3.28;;;14.50;95.70;;;;;;5032706;28;20049;-43
2022/08/02 01:23:05;;;;;;;12.55;3.95;;;14.40;95.90;;;;;;5053786;28;20400;-43
2022/08/02 01:25:50;;;;;;;7.82;3.25;;;14.40;95.80;;;;;;5068172;28;20080;-44
2022/08/02 01:28:29;;;;;;;9.18;3.45;;;14.30;95.80;;;;;;5056183;28;20107;-44
2022/08/02 01:30:58;;;;;;;7.40;2.72;;;14.30;96.00;;;;;;5063715;28;20348;-43
2022/08/02 01:33:26;;;;;;;11.35;3.60;;;14.30;96.10;;;;;;5054341;28;20145;-43
2022/08/02 01:35:53;;;;;;;12.57;3.72;;;14.20;96.40;;;;;;5049574;28;20047;-43
2022/08/02 01:38:23;;;;;;;10.20;3.40;;;14.20;96.30;;;;;;5069489;28;20036;-43
2022/08/02 01:40:50;;;;;;;8.10;3.20;;;14.20;96.50;;;;;;5061881;28;20036;-43
2022/08/02 01:43:17;;;;;;;10.77;3.50;;;14.20;96.40;;;;;;5070052;28;20090;-43
2022/08/02 01:45:45;;;;;;;5.28;2.75;;;14.20;96.60;;;;;;5047298;28;20533;-43
2022/08/02 01:48:12;;;;;;;8.90;3.60;;;14.20;96.70;;;;;;5075473;28;20133;-43
2022/08/02 01:50:39;;;;;;;14.05;3.95;;;14.10;96.70;;;;;;5055448;28;20124;-44
2022/08/02 01:53:06;;;;;;;10.52;3.03;;;14.10;96.80;;;;;;5054814;28;20143;-43
2022/08/02 01:55:35;;;;;;;5.55;2.65;;;14.10;96.80;;;;;;5054758;28;20064;-44
2022/08/02 01:58:03;;;;;;;11.23;3.70;;;14.10;96.70;;;;;;5059303;28;20072;-43
2022/08/02 02:00:31;;;;;;;8.68;3.20;;;14.10;96.90;;;;;;5068453;28;20739;-44
2022/08/02 02:03:00;;;;;;;12.88;4.30;;;14.00;97.00;;;;;;5040057;28;20045;-44
2022/08/02 02:05:28;;;;;;;8.77;3.28;;;14.00;97.40;;;;;;5059456;28;20083;-44
2022/08/02 02:07:58;;;;;;;10.68;3.58;;;14.00;97.40;;;;;;5067887;28;20041;-44
2022/08/02 02:10:26;;;;;;;11.40;4.05;;;14.00;97.40;;;;;;5066023;28;20075;-44
2022/08/02 02:12:52;;;;;;;8.02;3.38;;;13.90;97.40;;;;;;5074011;28;20135;-44
2022/08/02 02:15:19;;;;;;;10.85;3.50;;;13.90;97.20;;;;;;5067740;28;20111;-44
2022/08/02 02:17:47;;;;;;;10.07;4.03;;;13.90;97.20;;;;;;5058800;28;20046;-44
2022/08/02 02:20:17;;;;;;;14.60;4.45;;;13.90;97.40;;;;;;5073714;28;20136;-44
2022/08/02 02:22:43;;;;;;;10.50;3.75;;;13.90;97.80;;;;;;5069283;28;20127;-44
2022/08/02 02:25:11;;;;;;;13.20;4.00;;;13.90;97.60;;;;;;5075395;28;20446;-43
2022/08/02 02:27:37;;;;;;;13.82;4.90;;;13.80;97.70;;;;;;5062073;28;20087;-44
2022/08/02 02:30:05;;;;;;;13.18;3.80;;;13.80;98.00;;;;;;5062646;28;20132;-45
2022/08/02 02:32:31;;;;;;;15.05;4.80;;;13.80;98.30;;;;;;5068257;28;20080;-44
2022/08/02 02:34:58;;;;;;;11.48;4.07;;;13.80;98.00;;;;;;5061472;28;20087;-44
2022/08/02 02:37:27;;;;;;;11.40;4.43;;;13.80;98.10;;;;;;5070137;28;20072;-44
2022/08/02 02:39:54;;;;;;;11.63;3.88;;;13.70;98.10;;;;;;5070577;28;20127;-44
2022/08/02 02:42:23;;;;;;;11.57;4.20;;;13.70;98.10;;;;;;5057542;28;20411;-44
2022/08/02 02:44:50;;;;;;;16.15;4.10;;;13.70;98.10;;;;;;5073419;28;20140;-44
2022/08/02 02:47:17;;;;;;;13.32;4.00;;;13.70;98.30;;;;;;5056359;28;20141;-44
2022/08/02 02:49:44;;;;;;;17.23;5.20;;;13.70;98.30;;;;;;5040537;28;20127;-44
2022/08/02 02:52:10;;;;;;;11.82;4.65;;;13.70;98.60;;;;;;5060058;28;20054;-43
2022/08/02 02:54:38;;;;;;;12.10;4.95;;;13.70;98.70;;;;;;5072523;28;20040;-44
2022/08/02 02:57:05;;;;;;;11.05;4.10;;;13.60;98.90;;;;;;5071595;28;20072;-44
2022/08/02 02:59:33;;;;;;;14.43;4.60;;;13.60;98.80;;;;;;5064789;28;20040;-44
2022/08/02 03:01:59;;;;;;;12.77;4.35;;;13.60;98.80;;;;;;5060725;28;20099;-44
2022/08/02 03:04:28;;;;;;;7.63;4.07;;;13.60;98.90;;;;;;5067142;28;20135;-43
2022/08/02 03:06:54;;;;;;;10.80;4.15;;;13.60;98.90;;;;;;5059027;28;20127;-44
2022/08/02 03:09:21;;;;;;;12.68;4.40;;;13.60;98.90;;;;;;5072461;28;20054;-44
2022/08/02 03:11:49;;;;;;;9.30;3.88;;;13.60;98.80;;;;;;5069281;28;20080;-45
2022/08/02 03:14:16;;;;;;;13.75;5.05;;;13.70;98.90;;;;;;5039965;28;20127;-43
2022/08/02 03:16:43;;;;;;;13.25;4.38;;;13.60;99.10;;;;;;5051623;28;20048;-44
2022/08/02 03:19:10;;;;;;;19.35;6.10;;;13.60;99.20;;;;;;5048018;28;20050;-44
2022/08/02 03:21:37;;;;;;;15.52;4.90;;;13.60;99.40;;;;;;5040374;28;20676;-44
2022/08/02 03:24:04;;;;;;;10.35;4.75;;;13.60;99.40;;;;;;5064826;28;20101;-44
2022/08/02 03:26:31;;;;;;;13.88;4.22;;;13.60;99.40;;;;;;5073091;28;20131;-45
2022/08/02 03:28:59;;;;;;;17.15;4.35;;;13.60;99.20;;;;;;5053636;28;20499;-44
2022/08/02 03:31:26;;;;;;;13.60;4.82;;;13.60;99.10;;;;;;5061382;28;20072;-44
2022/08/02 03:33:53;;;;;;;9.60;4.57;;;13.50;99.20;;;;;;5046893;28;20552;-44
2022/08/02 03:36:20;;;;;;;15.45;5.50;;;13.60;99.30;;;;;;5037124;28;20216;-44
2022/08/02 03:38:47;;;;;;;17.75;5.95;;;13.60;99.40;;;;;;5042477;28;20072;-43
2022/08/02 03:41:15;;;;;;;17.40;5.20;;;13.50;99.50;;;;;;5049762;28;20091;-44
2022/08/02 03:43:43;;;;;;;12.10;4.60;;;13.50;99.60;;;;;;5054860;28;20452;-44
2022/08/02 03:46:11;;;;;;;11.95;4.63;;;13.50;99.50;;;;;;5067024;28;20488;-43
2022/08/02 03:48:37;;;;;;;14.98;6.10;;;13.50;99.50;;;;;;5058208;28;20046;-44
2022/08/02 03:51:04;;;;;;;13.60;5.10;;;13.60;99.80;;;;;;5053450;28;20215;-43
2022/08/02 03:53:32;;;;;;;11.30;4.50;;;13.50;99.90;;;;;;5045563;28;20491;-43
2022/08/02 03:55:59;;;;;;;13.15;5.25;;;13.50;99.80;;;;;;5044770;28;20052;-43
2022/08/02 03:58:26;;;;;;;16.85;6.00;;;13.50;99.80;;;;;;5046370;28;20441;-43
2022/08/02 04:00:53;;;;;;;17.58;5.50;;;13.40;99.90;;;;;;5058336;28;20076;-43
2022/08/02 04:03:21;;;;;;;10.40;4.70;;;13.50;99.90;;;;;;5038348;28;20080;-43
2022/08/02 04:05:48;;;;;;;13.77;5.03;;;13.40;99.90;;;;;;5033385;28;20042;-43
2022/08/02 04:08:15;;;;;;;10.15;4.90;;;13.50;99.90;;;;;;5048745;28;20072;-43
2022/08/02 04:13:27;;;;;;;15.80;5.85;;;13.50;99.90;;;;;;5069676;28;20063;-43
2022/08/02 04:15:55;;;;;;;12.63;4.78;;;13.50;99.90;;;;;;5067632;28;20120;-42
2022/08/02 04:18:26;;;;;;;12.80;5.10;;;13.50;99.90;;;;;;5061564;28;20068;-43
2022/08/02 04:20:53;;;;;;;16.70;6.32;;;13.50;99.90;;;;;;5056757;28;20048;-43
2022/08/02 04:23:20;;;;;;;14.93;6.10;;;13.50;99.90;;;;;;5067782;28;20147;-43
2022/08/02 04:25:46;;;;;;;11.50;5.53;;;13.50;99.90;;;;;;5050653;28;20131;-44
2022/08/02 04:28:14;;;;;;;11.05;6.10;;;13.50;99.90;;;;;;5069456;28;20071;-43
2022/08/02 04:30:40;;;;;;;18.00;5.75;;;13.50;99.90;;;;;;5068473;28;20449;-43
2022/08/02 04:33:07;;;;;;;13.68;5.93;;;13.50;99.90;;;;;;5057921;28;20443;-43
2022/08/02 04:35:35;;;;;;;14.95;5.35;;;13.60;99.90;;;;;;5070492;28;20535;-43
2022/08/02 04:38:02;;;;;;;14.90;5.97;;;13.60;99.90;;;;;;5070234;28;20044;-43
2022/08/02 04:40:29;;;;;;;21.77;6.50;;;13.50;99.90;;;;;;5063619;28;20133;-43
2022/08/02 04:42:55;;;;;;;18.70;6.63;;;13.60;99.90;;;;;;5068537;28;20049;-43
2022/08/02 04:45:22;;;;;;;13.23;6.07;;;13.60;99.90;;;;;;5067319;28;20073;-42
2022/08/02 04:47:49;;;;;;;12.55;6.03;;;13.60;99.90;;;;;;5049998;28;20148;-43
2022/08/02 04:50:16;;;;;;;22.50;7.20;;;13.70;99.90;;;;;;5050782;28;20158;-42
2022/08/02 04:52:44;;;;;;;13.30;6.93;;;13.70;99.90;;;;;;5052037;28;20136;-43
2022/08/02 04:55:11;;;;;;;15.50;6.88;;;13.70;99.90;;;;;;5052656;28;20051;-43
2022/08/02 04:57:56;;;;;;;18.15;7.57;;;13.70;99.90;;;;;;5052224;28;20069;-43
2022/08/02 05:00:23;;;;;;;16.73;6.55;;;13.70;99.90;;;;;;5051838;28;20049;-44
2022/08/02 05:02:51;;;;;;;16.55;7.00;;;13.70;99.90;;;;;;5050399;28;20060;-44
2022/08/02 05:05:18;;;;;;;16.65;7.10;;;13.70;99.90;;;;;;5054029;28;20146;-42
2022/08/02 05:07:46;;;;;;;19.55;6.20;;;13.70;99.90;;;;;;5056107;28;20516;-45
2022/08/02 05:10:13;;;;;;;13.13;5.82;;;13.80;99.90;;;;;;5058527;28;20491;-43
2022/08/02 05:12:39;;;;;;;15.45;6.72;;;13.80;99.90;;;;;;5066304;28;20053;-43
2022/08/02 05:15:07;;;;;;;20.15;5.82;;;13.80;99.90;;;;;;5047616;28;20088;-43
2022/08/02 05:17:34;;;;;;;14.10;6.00;;;13.90;99.90;;;;;;5049757;28;20041;-43
2022/08/02 05:20:01;;;;;;;12.32;5.95;;;13.90;99.90;;;;;;5048863;28;20135;-42
2022/08/02 05:22:28;;;;;;;16.17;6.30;;;13.90;99.90;;;;;;5043515;28;20128;-43
2022/08/02 05:24:56;;;;;;;16.38;6.60;;;14.00;99.90;;;;;;5035954;28;20123;-41
2022/08/02 05:27:22;;;;;;;15.57;6.57;;;14.00;99.90;;;;;;5034991;28;20120;-43
2022/08/02 05:29:50;;;;;;;12.85;6.35;;;14.00;99.90;;;;;;5060283;28;20148;-42
2022/08/02 05:32:17;;;;;;;15.68;6.30;;;14.10;99.90;;;;;;5075988;28;20052;-43
2022/08/02 05:34:44;;;;;;;13.35;5.95;;;14.10;99.90;;;;;;5068681;28;20084;-43
2022/08/02 05:37:10;;;;;;;12.50;5.97;;;14.20;99.90;;;;;;5066874;28;20132;-43
2022/08/02 05:39:37;;;;;;;18.13;6.60;;;14.30;99.90;;;;;;5054363;28;20152;-43
2022/08/02 05:42:06;;;;;;;16.30;7.13;;;14.30;99.90;;;;;;5051019;28;20043;-42
2022/08/02 05:44:32;;;;;;;19.15;7.78;;;14.40;99.90;;;;;;5055576;28;20055;-42
2022/08/02 05:46:59;;;;;;;17.92;6.50;;;14.50;99.90;;;;;;5055153;28;20055;-42
2022/08/02 05:49:26;;;;;;;12.68;5.90;;;14.60;99.90;;;;;;5051186;28;20425;-43
2022/08/02 05:52:09;;;;;;;18.27;6.45;;;14.70;99.90;;;;;;5046592;28;20128;-43
2022/08/02 05:54:39;;;;;;;17.10;7.05;;;14.80;99.90;;;;;;5052921;28;20128;-42
2022/08/02 05:57:11;;;;;;;14.90;6.35;;;14.90;99.90;;;;;;5068784;28;20091;-42
2022/08/02 05:59:40;;;;;;;13.15;6.25;;;15.10;99.90;;;;;;5039461;28;20041;-43
2022/08/02 06:02:11;;;;;;;13.43;5.90;;;15.20;99.90;;;;;;5063532;28;20124;-43
2022/08/02 06:04:42;;;;;;;15.98;5.95;;;15.20;99.90;;;;;;5054383;28;20131;-43
2022/08/02 06:07:09;;;;;;;11.70;5.60;;;15.40;99.90;;;;;;5061816;28;20143;-42
2022/08/02 06:09:35;;;;;;;12.25;6.15;;;15.50;99.90;;;;;;5055090;28;20636;-43
2022/08/02 06:12:02;;;;;;;9.50;5.30;;;15.70;99.90;;;;;;5053331;28;20548;-43
2022/08/02 06:14:31;;;;;;;12.75;5.65;;;15.80;99.90;;;;;;5054297;28;20144;-43
2022/08/02 06:16:58;;;;;;;15.50;6.00;;;15.90;99.90;;;;;;5073371;28;20094;-43
2022/08/02 06:19:25;;;;;;;13.20;5.88;;;16.00;99.90;;;;;;5071043;28;20048;-43
2022/08/02 06:21:51;;;;;;;12.02;5.03;;;16.10;99.90;;;;;;5059768;28;20480;-43
2022/08/02 06:24:19;;;;;;;12.32;4.82;;;16.20;99.90;;;;;;5052701;28;20045;-43
2022/08/02 06:26:45;;;;;;;15.10;5.18;;;16.40;99.90;;;;;;5054155;28;20087;-44
2022/08/02 06:29:12;;;;;;;12.98;5.05;;;16.50;99.90;;;;;;5052727;28;20049;-43
2022/08/02 06:31:42;;;;;;;14.75;5.45;;;16.60;99.90;;;;;;5052595;28;20045;-43
2022/08/02 06:34:09;;;;;;;11.35;4.55;;;16.80;99.90;;;;;;5071719;28;20040;-43
2022/08/02 06:36:38;;;;;;;14.98;5.47;;;17.00;99.90;;;;;;5074086;28;20075;-42
2022/08/02 06:39:08;;;;;;;11.45;4.60;;;17.10;99.90;;;;;;5074051;28;20051;-43
2022/08/02 06:41:38;;;;;;;20.77;4.55;;;17.30;99.90;;;;;;5058788;28;20126;-43
2022/08/02 06:44:05;;;;;;;12.85;4.53;;;17.50;99.80;;;;;;5034193;28;20042;-44
2022/08/02 06:46:33;;;;;;;14.23;5.18;;;17.60;99.60;;;;;;5033885;28;20077;-43
2022/08/02 06:49:01;;;;;;;12.88;4.25;;;17.70;99.40;;;;;;5034062;28;20495;-43
2022/08/02 06:51:28;;;;;;;14.48;4.75;;;17.80;99.30;;;;;;5058291;28;20456;-44
2022/08/02 06:53:55;;;;;;;8.48;4.10;;;17.90;99.10;;;;;;5052401;28;20136;-44
2022/08/02 06:56:22;;;;;;;14.13;4.57;;;18.00;99.00;;;;;;5046486;28;20120;-44
2022/08/02 06:58:48;;;;;;;13.80;4.00;;;18.10;98.80;;;;;;5051134;28;20128;-44
2022/08/02 07:01:15;;;;;;;15.13;4.60;;;18.20;98.50;;;;;;5053380;28;20499;-43
2022/08/02 07:03:42;;;;;;;15.32;4.18;;;18.30;98.40;;;;;;5067278;28;20059;-44
2022/08/02 07:06:10;;;;;;;8.50;3.90;;;18.50;98.30;;;;;;5073479;28;20084;-43
2022/08/02 07:08:37;;;;;;;11.68;3.90;;;18.70;98.10;;;;;;5071525;28;20133;-43
2022/08/02 07:11:04;;;;;;;7.95;3.50;;;18.80;97.80;;;;;;5073536;28;20048;-43
2022/08/02 07:13:31;;;;;;;10.95;3.95;;;19.00;97.30;;;;;;5072630;28;20143;-44
2022/08/02 07:15:57;;;;;;;10.90;4.03;;;19.10;97.00;;;;;;5071006;28;20120;-43
2022/08/02 07:18:25;;;;;;;8.98;3.60;;;19.30;96.80;;;;;;5069691;28;20131;-43
2022/08/02 07:20:51;;;;;;;8.70;3.40;;;19.40;96.70;;;;;;5051539;28;20118;-43
2022/08/02 07:23:19;;;;;;;11.50;3.28;;;19.50;96.20;;;;;;5056661;28;20052;-43
2022/08/02 07:25:46;;;;;;;10.50;3.97;;;19.60;95.70;;;;;;5039751;28;20081;-42
2022/08/02 07:28:14;;;;;;;9.52;2.88;;;19.60;95.30;;;;;;5032154;28;20125;-43
2022/08/02 07:30:41;;;;;;;10.38;2.90;;;19.60;95.10;;;;;;5032086;28;20569;-44
2022/08/02 07:33:08;;;;;;;6.93;2.75;;;19.70;95.00;;;;;;5056309;28;20129;-44
2022/08/02 07:35:35;;;;;;;7.72;3.10;;;19.80;95.10;;;;;;5072842;28;20460;-43
2022/08/02 07:38:02;;;;;;;9.27;3.30;;;19.90;94.80;;;;;;5067082;28;20099;-44
2022/08/02 07:40:30;;;;;;;8.15;3.13;;;20.00;94.60;;;;;;5052514;28;20129;-43
2022/08/02 07:42:57;;;;;;;9.57;2.90;;;20.20;94.50;;;;;;5059109;28;20063;-44
2022/08/02 07:45:24;;;;;;;8.95;2.83;;;20.30;94.00;;;;;;5064760;28;20489;-44
2022/08/02 07:47:51;;;;;;;11.27;2.83;;;20.40;94.10;;;;;;5066916;28;20139;-44
2022/08/02 07:50:18;;;;;;;7.35;2.60;;;20.60;93.90;;;;;;5071289;28;20131;-44
2022/08/02 07:52:45;;;;;;;6.55;2.45;;;20.70;93.70;;;;;;5066722;28;20063;-44
2022/08/02 07:55:13;;;;;;;6.88;2.58;;;20.90;93.20;;;;;;5052647;28;20085;-44
2022/08/02 07:57:42;;;;;;;9.30;2.65;;;21.00;92.80;;;;;;5049594;28;20084;-43
2022/08/02 08:00:09;;;;;;;8.38;2.80;;;21.20;92.40;;;;;;5064075;28;20044;-44
2022/08/02 08:02:36;;;;;;;6.07;2.30;;;21.30;92.20;;;;;;5060315;28;20554;-44
2022/08/02 08:05:03;;;;;;;7.07;2.47;;;21.40;92.20;;;;;;5060903;28;20106;-44
2022/08/02 08:07:30;;;;;;;9.32;2.65;;;21.60;91.90;;;;;;5054762;28;20471;-44
2022/08/02 08:09:58;;;;;;;7.60;2.83;;;21.70;91.30;;;;;;5061396;28;20091;-43
2022/08/02 08:12:25;;;;;;;7.38;2.08;;;21.80;91.20;;;;;;5050948;28;20049;-43
2022/08/02 08:14:54;;;;;;;4.82;2.08;;;21.90;91.20;;;;;;5058182;28;20052;-43
2022/08/02 08:17:20;;;;;;;8.60;2.10;;;22.00;90.60;;;;;;5072000;28;20458;-43
2022/08/02 08:19:47;;;;;;;8.68;2.05;;;22.10;90.70;;;;;;5072197;28;20131;-43
2022/08/02 08:22:14;;;;;;;6.55;2.03;;;22.30;89.40;;;;;;5072207;28;20127;-43
2022/08/02 08:24:41;;;;;;;7.53;2.17;;;22.40;88.80;;;;;;5071996;28;20466;-42
2022/08/02 08:27:13;;;;;;;7.03;2.10;;;22.60;89.30;;;;;;5058846;28;20127;-43
2022/08/02 08:29:40;;;;;;;8.60;2.47;;;22.80;87.90;;;;;;5050829;28;20520;-42
2022/08/02 08:32:08;;;;;;;7.53;1.67;;;22.90;86.40;;;;;;5050663;28;20211;-43
2022/08/02 08:34:35;;;;;;;5.97;2.00;;;23.00;85.30;;;;;;5053203;28;20128;-44
2022/08/02 08:37:02;;;;;;;6.65;2.08;;;23.10;83.70;;;;;;5070984;28;20045;-44
2022/08/02 08:39:29;;;;;;;6.95;1.50;;;23.10;83.50;;;;;;5070958;28;20128;-43
2022/08/02 08:41:56;;;;;;;4.95;1.60;;;23.10;83.90;;;;;;5036236;28;20048;-43
2022/08/02 08:44:23;;;;;;;7.47;2.33;;;23.20;82.90;;;;;;5030550;28;20127;-43
2022/08/02 08:46:50;;;;;;;6.07;1.40;;;23.30;82.60;;;;;;5032014;28;20135;-43
2022/08/02 08:49:21;;;;;;;6.05;1.58;;;23.50;82.60;;;;;;5053875;28;20495;-43
2022/08/02 08:51:48;;;;;;;5.93;1.52;;;23.70;80.80;;;;;;5067792;28;20518;-43
2022/08/02 08:54:16;;;;;;;4.38;1.55;;;23.80;79.70;;;;;;5049612;28;20449;-43
2022/08/02 08:56:43;;;;;;;4.70;1.30;;;23.90;79.60;;;;;;5070771;28;20060;-43
2022/08/02 08:59:10;;;;;;;4.80;1.33;;;24.10;78.80;;;;;;5072930;28;20036;-43
2022/08/02 09:01:36;;;;;;;4.75;1.30;;;24.20;77.40;;;;;;5075884;28;20056;-43
2022/08/02 09:04:03;;;;;;;5.03;1.52;;;24.30;76.70;;;;;;5063262;28;20487;-45
2022/08/02 09:06:31;;;;;;;8.55;1.58;;;24.40;74.70;;;;;;5066987;28;20045;-45
2022/08/02 09:08:58;;;;;;;6.57;1.70;;;24.30;73.80;;;;;;5051776;28;20127;-44
2022/08/02 09:11:25;;;;;;;5.72;1.50;;;24.40;73.70;;;;;;5075095;28;20129;-43
2022/08/02 09:13:53;;;;;;;5.68;1.40;;;24.60;74.30;;;;;;5071694;28;20048;-43
2022/08/02 09:16:31;;;;;;;4.78;1.58;;;24.70;73.80;;;;;;5072147;28;20417;-43
2022/08/02 09:18:58;;;;;;;6.30;1.60;;;24.80;73.10;;;;;;5062447;28;20124;-43
2022/08/02 09:21:25;;;;;;;8.50;1.90;;;25.00;73.40;;;;;;5054528;28;20457;-43
2022/08/02 09:23:54;;;;;;;7.13;1.65;;;25.20;72.20;;;;;;5053919;28;20671;-43
2022/08/02 09:26:22;;;;;;;5.80;1.80;;;25.40;71.70;;;;;;5054141;28;20045;-43
2022/08/02 09:28:50;;;;;;;11.57;2.45;;;25.50;71.00;;;;;;5064683;28;20071;-43
2022/08/02 09:31:17;;;;;;;7.18;1.90;;;25.60;70.80;;;;;;5067451;28;20104;-43
2022/08/02 09:33:45;;;;;;;6.78;2.35;;;25.70;70.80;;;;;;5041650;28;20049;-43
2022/08/02 09:36:12;;;;;;;4.35;2.10;;;25.80;70.10;;;;;;5052394;28;20076;-44
2022/08/02 09:38:40;;;;;;;6.18;2.08;;;25.70;70.40;;;;;;5040646;28;20077;-44
2022/08/02 09:41:21;;;;;;;6.07;2.25;;;25.80;70.50;;;;;;5042733;28;20046;-44
2022/08/02 09:43:47;;;;;;;7.32;2.25;;;25.90;71.50;;;;;;5042594;28;20463;-44
2022/08/02 09:46:15;;;;;;;5.97;2.20;;;26.00;70.90;;;;;;5054840;28;20127;-44
2022/08/02 09:48:49;;;;;;;10.13;2.40;;;26.10;71.10;;;;;;5053731;28;20071;-45
2022/08/02 09:51:18;;;;;;;6.30;2.25;;;26.20;72.20;;;;;;5059631;28;20400;-43
2022/08/02 09:53:45;;;;;;;8.77;2.92;;;26.30;72.40;;;;;;5051024;28;20041;-44
2022/08/02 09:56:13;;;;;;;6.65;2.05;;;26.40;72.00;;;;;;5046946;28;20128;-44
2022/08/02 09:58:40;;;;;;;5.03;2.55;;;26.50;72.50;;;;;;5042705;28;20044;-44
2022/08/02 10:01:07;;;;;;;6.13;2.70;;;26.60;71.60;;;;;;5054843;28;20041;-44
2022/08/02 10:03:34;;;;;;;5.10;2.47;;;26.60;71.30;;;;;;5054520;28;20049;-43
2022/08/02 10:06:01;;;;;;;6.60;3.10;;;26.50;71.70;;;;;;5052584;28;20046;-43
2022/08/02 10:08:28;;;;;;;6.13;2.50;;;26.50;71.90;;;;;;5053582;28;20060;-43
2022/08/02 10:11:00;;;;;;;6.97;2.40;;;26.50;72.80;;;;;;5061460;28;20041;-44
2022/08/02 10:13:29;;;;;;;5.68;2.35;;;26.70;73.50;;;;;;5069456;28;20059;-43
2022/08/02 10:15:56;;;;;;;6.30;2.45;;;26.80;72.60;;;;;;5053977;28;20076;-44
2022/08/02 10:18:23;;;;;;;6.30;2.95;;;26.90;72.90;;;;;;5054174;28;20052;-44
2022/08/02 10:20:50;;;;;;;4.55;2.60;;;27.10;73.20;;;;;;5074564;28;20511;-43
2022/08/02 10:23:17;;;;;;;10.30;3.15;;;27.10;72.70;;;;;;5061014;28;20127;-44
2022/08/02 10:25:44;;;;;;;7.20;3.35;;;27.30;72.80;;;;;;5053832;28;20048;-44
2022/08/02 10:28:11;;;;;;;8.80;2.80;;;27.30;72.50;;;;;;5054708;28;20092;-44
2022/08/02 10:30:40;;;;;;;4.30;3.08;;;27.40;72.80;;;;;;5044773;28;20140;-43
2022/08/02 10:33:07;;;;;;;5.20;2.95;;;27.50;72.10;;;;;;5034602;28;20049;-44
2022/08/02 10:35:35;;;;;;;7.70;2.72;;;27.50;72.40;;;;;;5040408;28;20139;-44
2022/08/02 10:38:06;;;;;;;5.53;2.92;;;27.60;72.50;;;;;;5062113;28;20057;-43
2022/08/02 10:40:43;;;;;;;6.78;2.90;;;27.70;71.70;;;;;;5049249;28;20072;-43
2022/08/02 10:43:10;;;;;;;5.95;2.90;;;27.90;72.30;;;;;;5053307;28;20076;-43
2022/08/02 10:45:38;;;;;;;8.90;2.80;;;28.00;72.30;;;;;;5053744;28;20128;-43
2022/08/02 10:48:08;;;;;;;5.82;2.78;;;28.10;71.90;;;;;;5052218;28;20069;-44
2022/08/02 10:50:54;;;;;;;7.13;2.70;;;28.20;71.40;;;;;;5040508;28;20136;-43
2022/08/02 10:53:23;;;;;;;9.23;3.10;;;28.40;71.20;;;;;;5054241;28;20088;-43
2022/08/02 10:55:50;;;;;;;5.45;2.90;;;28.60;70.90;;;;;;5040191;28;20049;-43
2022/08/02 10:58:17;;;;;;;5.82;2.50;;;28.60;69.40;;;;;;5057039;28;20098;-43
2022/08/02 11:00:46;;;;;;;4.43;2.60;;;28.60;69.30;;;;;;5074074;28;20468;-43
2022/08/02 11:03:38;;;;;;;7.05;2.80;;;28.70;69.50;;;;;;5072512;28;20131;-44
2022/08/02 11:06:06;;;;;;;5.07;2.58;;;28.70;67.60;;;;;;5072831;28;20491;-44
2022/08/02 11:08:32;;;;;;;9.73;2.80;;;28.50;68.40;;;;;;5073790;28;20138;-44
2022/08/02 11:11:00;;;;;;;4.68;2.63;;;28.50;68.60;;;;;;5072762;28;20549;-44
2022/08/02 11:13:28;;;;;;;5.60;2.70;;;28.50;68.10;;;;;;5051490;28;20052;-44
2022/08/02 11:16:01;;;;;;;6.68;3.35;;;28.50;68.40;;;;;;5053978;28;20048;-43
2022/08/02 11:19:01;;;;;;;8.15;2.70;;;28.50;68.30;;;;;;5059999;28;20075;-43
2022/08/02 11:21:28;;;;;;;7.23;2.77;;;28.60;69.00;;;;;;5070328;28;20389;-43
2022/08/02 11:24:27;;;;;;;6.93;2.65;;;28.70;68.90;;;;;;5073568;28;20499;-44
2022/08/02 11:26:54;;;;;;;6.72;2.58;;;28.90;68.00;;;;;;5062121;28;20133;-44
2022/08/02 11:29:20;;;;;;;7.53;2.25;;;29.00;68.00;;;;;;5053537;28;20132;-45
2022/08/02 11:31:49;;;;;;;5.45;1.88;;;29.00;67.20;;;;;;5051564;28;20064;-44
2022/08/02 11:34:16;;;;;;;3.67;1.98;;;29.10;68.00;;;;;;5052721;28;20144;-44
2022/08/02 11:36:45;;;;;;;4.22;2.13;;;29.20;67.40;;;;;;5051862;28;20079;-44
2022/08/02 11:39:13;;;;;;;4.20;2.05;;;29.40;66.60;;;;;;5052066;28;20048;-44
2022/08/02 11:41:40;;;;;;;13.77;2.20;;;29.40;66.30;;;;;;5067840;28;20059;-44
2022/08/02 11:44:06;;;;;;;5.45;2.78;;;29.40;66.50;;;;;;5072120;28;20044;-43
2022/08/02 11:46:33;;;;;;;5.20;2.72;;;29.50;66.10;;;;;;5073156;28;20131;-44
2022/08/02 11:49:13;;;;;;;6.75;2.80;;;29.50;66.30;;;;;;5052641;28;20085;-44
2022/08/02 11:51:40;;;;;;;6.50;2.97;;;29.60;66.80;;;;;;5053363;28;20120;-44
2022/08/02 11:54:06;;;;;;;4.22;2.40;;;29.60;66.50;;;;;;5051601;28;20124;-43
2022/08/02 11:56:33;;;;;;;4.07;2.30;;;29.60;66.70;;;;;;5052891;28;20055;-43
2022/08/02 11:59:04;;;;;;;3.25;2.60;;;29.60;66.40;;;;;;5052736;28;20084;-44
2022/08/02 12:01:31;;;;;;;4.05;2.35;;;29.60;65.90;;;;;;5053959;28;20148;-43
2022/08/02 12:03:59;;;;;;;6.30;2.30;;;29.60;65.60;;;;;;5062098;28;20149;-43
2022/08/02 12:06:28;;;;;;;5.10;2.10;;;29.60;65.30;;;;;;5052454;28;20132;-43
2022/08/02 12:08:59;;;;;;;3.78;2.15;;;29.70;66.20;;;;;;5052917;28;20051;-43
2022/08/02 12:11:26;;;;;;;;;;;29.80;66.30;;;;;;5049472;28;20083;-43
2022/08/02 12:13:52;;;;;;;6.72;2.20;;;29.90;67.80;;;;;;5052869;28;19920;-43
2022/08/02 12:19:19;;;;;;;5.55;2.58;;;30.00;64.90;;;;;;5066649;28;20045;-43
2022/08/02 12:21:47;;;;;;;4.65;2.83;;;30.00;64.90;;;;;;5069264;28;20528;-44
2022/08/02 12:24:13;;;;;;;4.82;2.47;;;30.10;65.20;;;;;;5071401;28;20098;-44
2022/08/02 12:26:44;;;;;;;7.18;2.63;;;30.00;65.10;;;;;;5060970;28;20073;-44
2022/08/02 12:29:11;;;;;;;3.97;2.75;;;30.00;64.80;;;;;;5058354;28;20044;-44
2022/08/02 12:31:42;;;;;;;8.30;3.53;;;30.10;65.40;;;;;;5070553;28;20044;-43
2022/08/02 12:34:15;;;;;;;7.03;2.83;;;30.20;65.20;;;;;;5048120;28;20412;-44
2022/08/02 12:36:42;;;;;;;4.88;2.53;;;30.20;65.60;;;;;;5051303;28;20052;-44
2022/08/02 12:39:13;;;;;;;4.30;2.65;;;30.30;64.70;;;;;;5052290;28;20145;-44
2022/08/02 12:41:40;;;;;;;4.88;2.50;;;30.20;65.30;;;;;;5052264;28;20045;-43
2022/08/02 12:44:14;;;;;;;3.83;2.50;;;30.20;65.10;;;;;;5053034;28;20523;-43
2022/08/02 12:46:41;;;;;;;7.95;3.10;;;30.30;64.70;;;;;;5072440;28;20123;-43
2022/08/02 12:49:15;;;;;;;3.75;2.67;;;30.20;65.50;;;;;;5058134;28;20486;-43
2022/08/02 12:51:41;;;;;;;4.20;3.10;;;30.10;65.10;;;;;;5052401;28;20072;-44
2022/08/02 12:54:14;;;;;;;7.10;3.17;;;29.90;65.20;;;;;;5052202;28;20515;-44